sensor_id;sensor_type;location;lat;lon;timestamp;P1;durP1;ratioP1;P2;durP2;ratioP2
23080;SDS011;11708;50.570;8.532;2023-02-01T00:00:01;5.90;;;3.42;;
23080;SDS011;11708;50.570;8.532;2023-02-01T00:02:27;7.72;;;3.97;;
23080;SDS011;11708;50.570;8.532;2023-02-01T00:04:52;8.20;;;4.00;;
23080;SDS011;11708;50.570;8.532;2023-02-01T00:07:18;10.95;;;4.22;;
23080;SDS011;11708;50.570;8.532;2023-02-01T00:09:44;9.48;;;5.90;;
23080;SDS011;11708;50.570;8.532;2023-02-01T00:12:09;8.65;;;4.70;;
23080;SDS011;11708;50.570;8.532;2023-02-01T00:14:35;9.57;;;5.13;;
23080;SDS011;11708;50.570;8.532;2023-02-01T00:17:06;9.77;;;5.28;;
23080;SDS011;11708;50.570;8.532;2023-02-01T00:19:32;10.38;;;5.20;;
23080;SDS011;11708;50.570;8.532;2023-02-01T00:21:59;10.95;;;5.85;;
23080;SDS011;11708;50.570;8.532;2023-02-01T00:24:24;9.60;;;5.30;;
23080;SDS011;11708;50.570;8.532;2023-02-01T00:26:50;10.85;;;6.00;;
23080;SDS011;11708;50.570;8.532;2023-02-01T00:29:17;8.88;;;5.53;;
23080;SDS011;11708;50.570;8.532;2023-02-01T00:31:44;13.38;;;6.60;;
23080;SDS011;11708;50.570;8.532;2023-02-01T00:34:14;13.57;;;5.68;;
23080;SDS011;11708;50.570;8.532;2023-02-01T00:36:41;12.40;;;5.65;;
23080;SDS011;11708;50.570;8.532;2023-02-01T00:39:08;12.52;;;5.97;;
23080;SDS011;11708;50.570;8.532;2023-02-01T00:41:35;10.95;;;5.93;;
23080;SDS011;11708;50.570;8.532;2023-02-01T00:44:01;14.73;;;6.03;;
23080;SDS011;11708;50.570;8.532;2023-02-01T00:46:27;9.57;;;5.68;;
23080;SDS011;11708;50.570;8.532;2023-02-01T00:48:53;10.10;;;5.40;;
23080;SDS011;11708;50.570;8.532;2023-02-01T00:51:26;9.82;;;5.88;;
23080;SDS011;11708;50.570;8.532;2023-02-01T00:53:52;12.98;;;7.00;;
23080;SDS011;11708;50.570;8.532;2023-02-01T00:56:18;13.32;;;6.93;;
23080;SDS011;11708;50.570;8.532;2023-02-01T00:58:45;10.05;;;5.90;;
23080;SDS011;11708;50.570;8.532;2023-02-01T01:01:15;10.27;;;5.40;;
23080;SDS011;11708;50.570;8.532;2023-02-01T01:03:48;10.45;;;5.72;;
23080;SDS011;11708;50.570;8.532;2023-02-01T01:06:22;13.45;;;6.85;;
23080;SDS011;11708;50.570;8.532;2023-02-01T01:08:53;12.93;;;6.65;;
23080;SDS011;11708;50.570;8.532;2023-02-01T01:11:22;10.85;;;5.95;;
23080;SDS011;11708;50.570;8.532;2023-02-01T01:13:51;9.48;;;5.82;;
23080;SDS011;11708;50.570;8.532;2023-02-01T01:16:18;10.07;;;6.05;;
23080;SDS011;11708;50.570;8.532;2023-02-01T01:18:45;14.32;;;7.43;;
23080;SDS011;11708;50.570;8.532;2023-02-01T01:21:12;10.63;;;6.15;;
23080;SDS011;11708;50.570;8.532;2023-02-01T01:23:39;12.48;;;7.15;;
23080;SDS011;11708;50.570;8.532;2023-02-01T01:26:09;14.68;;;6.88;;
23080;SDS011;11708;50.570;8.532;2023-02-01T01:28:39;11.00;;;6.70;;
23080;SDS011;11708;50.570;8.532;2023-02-01T01:31:09;12.50;;;6.20;;
23080;SDS011;11708;50.570;8.532;2023-02-01T01:33:35;15.45;;;6.70;;
23080;SDS011;11708;50.570;8.532;2023-02-01T01:36:02;17.15;;;7.35;;
23080;SDS011;11708;50.570;8.532;2023-02-01T01:38:30;14.35;;;7.28;;
23080;SDS011;11708;50.570;8.532;2023-02-01T01:40:56;12.25;;;7.15;;
23080;SDS011;11708;50.570;8.532;2023-02-01T01:43:22;15.27;;;6.95;;
23080;SDS011;11708;50.570;8.532;2023-02-01T01:45:48;14.63;;;7.43;;
23080;SDS011;11708;50.570;8.532;2023-02-01T01:48:16;13.43;;;7.22;;
23080;SDS011;11708;50.570;8.532;2023-02-01T01:51:05;12.65;;;6.97;;
23080;SDS011;11708;50.570;8.532;2023-02-01T01:53:40;14.90;;;7.78;;
23080;SDS011;11708;50.570;8.532;2023-02-01T01:56:14;10.68;;;6.63;;
23080;SDS011;11708;50.570;8.532;2023-02-01T01:58:40;12.75;;;7.45;;
23080;SDS011;11708;50.570;8.532;2023-02-01T02:01:06;11.07;;;7.40;;
23080;SDS011;11708;50.570;8.532;2023-02-01T02:03:39;14.10;;;7.57;;
23080;SDS011;11708;50.570;8.532;2023-02-01T02:06:12;13.93;;;7.93;;
23080;SDS011;11708;50.570;8.532;2023-02-01T02:08:47;16.75;;;7.95;;
23080;SDS011;11708;50.570;8.532;2023-02-01T02:11:14;18.15;;;7.57;;
23080;SDS011;11708;50.570;8.532;2023-02-01T02:13:42;13.93;;;7.07;;
23080;SDS011;11708;50.570;8.532;2023-02-01T02:16:20;9.95;;;7.32;;
23080;SDS011;11708;50.570;8.532;2023-02-01T02:28:23;10.93;;;6.35;;
23080;SDS011;11708;50.570;8.532;2023-02-01T02:30:59;9.98;;;6.43;;
23080;SDS011;11708;50.570;8.532;2023-02-01T02:44:27;15.48;;;6.40;;
23080;SDS011;11708;50.570;8.532;2023-02-01T02:47:19;10.98;;;6.00;;
23080;SDS011;11708;50.570;8.532;2023-02-01T02:50:12;10.57;;;5.75;;
23080;SDS011;11708;50.570;8.532;2023-02-01T02:53:24;13.35;;;5.88;;
23080;SDS011;11708;50.570;8.532;2023-02-01T02:56:15;11.93;;;5.55;;
23080;SDS011;11708;50.570;8.532;2023-02-01T02:59:03;17.73;;;6.10;;
23080;SDS011;11708;50.570;8.532;2023-02-01T03:01:50;16.77;;;5.72;;
23080;SDS011;11708;50.570;8.532;2023-02-01T03:04:35;12.40;;;5.70;;
23080;SDS011;11708;50.570;8.532;2023-02-01T03:10:30;11.95;;;5.75;;
23080;SDS011;11708;50.570;8.532;2023-02-01T03:18:16;13.23;;;5.20;;
23080;SDS011;11708;50.570;8.532;2023-02-01T03:20:49;10.68;;;4.55;;
23080;SDS011;11708;50.570;8.532;2023-02-01T03:23:19;8.45;;;4.30;;
23080;SDS011;11708;50.570;8.532;2023-02-01T03:25:48;12.02;;;4.13;;
23080;SDS011;11708;50.570;8.532;2023-02-01T03:28:17;9.40;;;4.40;;
23080;SDS011;11708;50.570;8.532;2023-02-01T03:30:46;14.60;;;4.50;;
23080;SDS011;11708;50.570;8.532;2023-02-01T03:33:15;12.13;;;4.38;;
23080;SDS011;11708;50.570;8.532;2023-02-01T03:36:09;10.52;;;3.78;;
23080;SDS011;11708;50.570;8.532;2023-02-01T03:44:29;10.95;;;3.55;;
23080;SDS011;11708;50.570;8.532;2023-02-01T03:49:50;13.77;;;3.33;;
23080;SDS011;11708;50.570;8.532;2023-02-01T03:52:22;9.98;;;3.30;;
23080;SDS011;11708;50.570;8.532;2023-02-01T03:54:53;15.30;;;3.50;;
23080;SDS011;11708;50.570;8.532;2023-02-01T03:57:22;7.38;;;4.07;;
23080;SDS011;11708;50.570;8.532;2023-02-01T04:00:00;9.27;;;3.10;;
23080;SDS011;11708;50.570;8.532;2023-02-01T04:02:33;7.53;;;3.00;;
23080;SDS011;11708;50.570;8.532;2023-02-01T04:04:59;12.65;;;3.10;;
23080;SDS011;11708;50.570;8.532;2023-02-01T04:07:24;12.10;;;3.28;;
23080;SDS011;11708;50.570;8.532;2023-02-01T04:09:50;16.25;;;3.38;;
23080;SDS011;11708;50.570;8.532;2023-02-01T04:12:16;13.40;;;3.65;;
23080;SDS011;11708;50.570;8.532;2023-02-01T04:14:42;14.57;;;3.67;;
23080;SDS011;11708;50.570;8.532;2023-02-01T04:17:08;11.30;;;3.85;;
23080;SDS011;11708;50.570;8.532;2023-02-01T04:19:33;14.10;;;3.60;;
23080;SDS011;11708;50.570;8.532;2023-02-01T04:21:59;18.55;;;3.30;;
23080;SDS011;11708;50.570;8.532;2023-02-01T04:24:24;10.02;;;3.15;;
23080;SDS011;11708;50.570;8.532;2023-02-01T04:26:50;10.75;;;3.85;;
23080;SDS011;11708;50.570;8.532;2023-02-01T04:29:16;10.07;;;3.28;;
23080;SDS011;11708;50.570;8.532;2023-02-01T04:31:42;9.07;;;3.05;;
23080;SDS011;11708;50.570;8.532;2023-02-01T04:34:08;12.63;;;3.70;;
23080;SDS011;11708;50.570;8.532;2023-02-01T04:36:33;10.70;;;3.00;;
23080;SDS011;11708;50.570;8.532;2023-02-01T04:38:59;13.55;;;3.58;;
23080;SDS011;11708;50.570;8.532;2023-02-01T04:41:25;11.77;;;3.70;;
23080;SDS011;11708;50.570;8.532;2023-02-01T04:43:51;8.73;;;3.08;;
23080;SDS011;11708;50.570;8.532;2023-02-01T04:46:17;11.40;;;3.38;;
23080;SDS011;11708;50.570;8.532;2023-02-01T04:48:43;10.95;;;3.65;;
23080;SDS011;11708;50.570;8.532;2023-02-01T04:51:10;9.70;;;3.17;;
23080;SDS011;11708;50.570;8.532;2023-02-01T04:53:36;13.63;;;3.40;;
23080;SDS011;11708;50.570;8.532;2023-02-01T04:56:02;15.95;;;4.05;;
23080;SDS011;11708;50.570;8.532;2023-02-01T04:58:29;13.10;;;2.72;;
23080;SDS011;11708;50.570;8.532;2023-02-01T05:00:54;11.23;;;3.10;;
23080;SDS011;11708;50.570;8.532;2023-02-01T05:03:20;15.32;;;4.57;;
23080;SDS011;11708;50.570;8.532;2023-02-01T05:05:49;11.07;;;3.47;;
23080;SDS011;11708;50.570;8.532;2023-02-01T05:08:15;8.77;;;3.15;;
23080;SDS011;11708;50.570;8.532;2023-02-01T05:10:41;14.18;;;4.88;;
23080;SDS011;11708;50.570;8.532;2023-02-01T05:13:08;10.73;;;3.10;;
23080;SDS011;11708;50.570;8.532;2023-02-01T05:15:53;12.27;;;4.13;;
23080;SDS011;11708;50.570;8.532;2023-02-01T05:18:19;16.40;;;3.90;;
23080;SDS011;11708;50.570;8.532;2023-02-01T05:20:44;9.27;;;3.55;;
23080;SDS011;11708;50.570;8.532;2023-02-01T05:23:10;10.27;;;3.35;;
23080;SDS011;11708;50.570;8.532;2023-02-01T05:25:36;15.55;;;3.40;;
23080;SDS011;11708;50.570;8.532;2023-02-01T05:28:01;10.77;;;4.00;;
23080;SDS011;11708;50.570;8.532;2023-02-01T05:30:27;11.57;;;3.60;;
23080;SDS011;11708;50.570;8.532;2023-02-01T05:32:53;13.00;;;4.07;;
23080;SDS011;11708;50.570;8.532;2023-02-01T05:35:19;13.68;;;4.28;;
23080;SDS011;11708;50.570;8.532;2023-02-01T05:37:45;9.27;;;3.97;;
23080;SDS011;11708;50.570;8.532;2023-02-01T05:40:11;17.95;;;4.55;;
23080;SDS011;11708;50.570;8.532;2023-02-01T05:42:38;12.15;;;4.00;;
23080;SDS011;11708;50.570;8.532;2023-02-01T05:45:04;10.20;;;3.83;;
23080;SDS011;11708;50.570;8.532;2023-02-01T05:47:32;14.02;;;3.40;;
23080;SDS011;11708;50.570;8.532;2023-02-01T05:49:58;11.70;;;3.80;;
23080;SDS011;11708;50.570;8.532;2023-02-01T05:52:23;16.38;;;4.82;;
23080;SDS011;11708;50.570;8.532;2023-02-01T05:54:49;8.05;;;3.65;;
23080;SDS011;11708;50.570;8.532;2023-02-01T05:57:15;14.68;;;4.43;;
23080;SDS011;11708;50.570;8.532;2023-02-01T05:59:41;16.88;;;4.15;;
23080;SDS011;11708;50.570;8.532;2023-02-01T06:02:09;17.67;;;4.57;;
23080;SDS011;11708;50.570;8.532;2023-02-01T06:04:36;10.77;;;3.80;;
23080;SDS011;11708;50.570;8.532;2023-02-01T06:07:01;19.48;;;5.60;;
23080;SDS011;11708;50.570;8.532;2023-02-01T06:09:27;16.58;;;4.55;;
23080;SDS011;11708;50.570;8.532;2023-02-01T06:11:53;10.55;;;4.38;;
23080;SDS011;11708;50.570;8.532;2023-02-01T06:14:19;11.88;;;4.68;;
23080;SDS011;11708;50.570;8.532;2023-02-01T06:16:45;12.05;;;4.13;;
23080;SDS011;11708;50.570;8.532;2023-02-01T06:19:11;12.07;;;4.03;;
23080;SDS011;11708;50.570;8.532;2023-02-01T06:21:38;12.60;;;4.00;;
23080;SDS011;11708;50.570;8.532;2023-02-01T06:24:03;10.77;;;4.18;;
23080;SDS011;11708;50.570;8.532;2023-02-01T06:26:29;17.85;;;4.05;;
23080;SDS011;11708;50.570;8.532;2023-02-01T06:28:55;12.02;;;4.30;;
23080;SDS011;11708;50.570;8.532;2023-02-01T06:31:21;12.07;;;3.90;;
23080;SDS011;11708;50.570;8.532;2023-02-01T06:33:48;7.35;;;3.15;;
23080;SDS011;11708;50.570;8.532;2023-02-01T06:36:14;9.65;;;3.85;;
23080;SDS011;11708;50.570;8.532;2023-02-01T06:38:45;10.25;;;3.65;;
23080;SDS011;11708;50.570;8.532;2023-02-01T06:41:11;8.93;;;3.72;;
23080;SDS011;11708;50.570;8.532;2023-02-01T06:43:36;11.90;;;3.45;;
23080;SDS011;11708;50.570;8.532;2023-02-01T06:46:03;14.77;;;3.85;;
23080;SDS011;11708;50.570;8.532;2023-02-01T06:48:34;13.50;;;4.35;;
23080;SDS011;11708;50.570;8.532;2023-02-01T06:51:00;11.98;;;3.50;;
23080;SDS011;11708;50.570;8.532;2023-02-01T06:53:41;14.07;;;3.88;;
23080;SDS011;11708;50.570;8.532;2023-02-01T06:56:08;10.35;;;4.15;;
23080;SDS011;11708;50.570;8.532;2023-02-01T06:58:34;17.27;;;3.72;;
23080;SDS011;11708;50.570;8.532;2023-02-01T07:01:06;7.53;;;3.67;;
23080;SDS011;11708;50.570;8.532;2023-02-01T07:03:33;13.45;;;5.35;;
23080;SDS011;11708;50.570;8.532;2023-02-01T07:05:59;15.95;;;3.60;;
23080;SDS011;11708;50.570;8.532;2023-02-01T07:08:26;13.57;;;3.90;;
23080;SDS011;11708;50.570;8.532;2023-02-01T07:10:53;14.13;;;4.80;;
23080;SDS011;11708;50.570;8.532;2023-02-01T07:13:18;15.93;;;4.45;;
23080;SDS011;11708;50.570;8.532;2023-02-01T07:15:45;15.80;;;4.32;;
23080;SDS011;11708;50.570;8.532;2023-02-01T07:18:14;12.65;;;4.72;;
23080;SDS011;11708;50.570;8.532;2023-02-01T07:20:41;15.68;;;4.03;;
23080;SDS011;11708;50.570;8.532;2023-02-01T07:23:08;18.27;;;4.82;;
23080;SDS011;11708;50.570;8.532;2023-02-01T07:25:34;18.15;;;4.28;;
23080;SDS011;11708;50.570;8.532;2023-02-01T07:28:02;18.75;;;4.65;;
23080;SDS011;11708;50.570;8.532;2023-02-01T07:30:28;14.73;;;4.28;;
23080;SDS011;11708;50.570;8.532;2023-02-01T07:32:54;10.38;;;4.32;;
23080;SDS011;11708;50.570;8.532;2023-02-01T07:35:20;11.02;;;4.43;;
23080;SDS011;11708;50.570;8.532;2023-02-01T07:37:46;14.90;;;4.05;;
23080;SDS011;11708;50.570;8.532;2023-02-01T07:40:11;11.23;;;4.70;;
23080;SDS011;11708;50.570;8.532;2023-02-01T07:42:37;18.85;;;4.15;;
23080;SDS011;11708;50.570;8.532;2023-02-01T07:45:03;15.82;;;4.30;;
23080;SDS011;11708;50.570;8.532;2023-02-01T07:47:29;13.88;;;3.92;;
23080;SDS011;11708;50.570;8.532;2023-02-01T07:49:55;13.57;;;4.47;;
23080;SDS011;11708;50.570;8.532;2023-02-01T07:52:21;15.52;;;4.35;;
23080;SDS011;11708;50.570;8.532;2023-02-01T07:54:47;13.48;;;4.30;;
23080;SDS011;11708;50.570;8.532;2023-02-01T07:57:13;16.92;;;3.95;;
23080;SDS011;11708;50.570;8.532;2023-02-01T07:59:39;13.38;;;3.95;;
23080;SDS011;11708;50.570;8.532;2023-02-01T08:02:25;14.00;;;4.32;;
23080;SDS011;11708;50.570;8.532;2023-02-01T08:04:51;13.35;;;3.60;;
23080;SDS011;11708;50.570;8.532;2023-02-01T08:07:17;16.42;;;4.40;;
23080;SDS011;11708;50.570;8.532;2023-02-01T08:09:42;14.27;;;4.18;;
23080;SDS011;11708;50.570;8.532;2023-02-01T08:12:08;11.30;;;3.72;;
23080;SDS011;11708;50.570;8.532;2023-02-01T08:14:34;12.32;;;3.55;;
23080;SDS011;11708;50.570;8.532;2023-02-01T08:16:59;14.60;;;4.32;;
23080;SDS011;11708;50.570;8.532;2023-02-01T08:19:25;13.40;;;4.50;;
23080;SDS011;11708;50.570;8.532;2023-02-01T08:21:51;12.95;;;3.95;;
23080;SDS011;11708;50.570;8.532;2023-02-01T08:24:17;9.70;;;3.75;;
23080;SDS011;11708;50.570;8.532;2023-02-01T08:26:42;9.80;;;4.45;;
23080;SDS011;11708;50.570;8.532;2023-02-01T08:29:08;9.68;;;3.47;;
23080;SDS011;11708;50.570;8.532;2023-02-01T08:31:36;15.38;;;4.05;;
23080;SDS011;11708;50.570;8.532;2023-02-01T08:34:05;11.77;;;3.67;;
23080;SDS011;11708;50.570;8.532;2023-02-01T08:36:33;14.43;;;4.00;;
23080;SDS011;11708;50.570;8.532;2023-02-01T08:38:59;12.45;;;4.30;;
23080;SDS011;11708;50.570;8.532;2023-02-01T08:41:26;10.63;;;4.22;;
23080;SDS011;11708;50.570;8.532;2023-02-01T08:43:54;10.63;;;3.40;;
23080;SDS011;11708;50.570;8.532;2023-02-01T08:46:20;9.88;;;4.45;;
23080;SDS011;11708;50.570;8.532;2023-02-01T08:48:46;8.88;;;4.60;;
23080;SDS011;11708;50.570;8.532;2023-02-01T08:51:13;12.82;;;5.10;;
23080;SDS011;11708;50.570;8.532;2023-02-01T08:53:43;11.95;;;3.78;;
23080;SDS011;11708;50.570;8.532;2023-02-01T08:56:10;18.30;;;4.93;;
23080;SDS011;11708;50.570;8.532;2023-02-01T08:58:37;15.60;;;4.45;;
23080;SDS011;11708;50.570;8.532;2023-02-01T09:01:04;16.58;;;4.85;;
23080;SDS011;11708;50.570;8.532;2023-02-01T09:03:30;14.80;;;4.47;;
23080;SDS011;11708;50.570;8.532;2023-02-01T09:06:03;13.18;;;3.90;;
23080;SDS011;11708;50.570;8.532;2023-02-01T09:08:30;9.48;;;4.13;;
23080;SDS011;11708;50.570;8.532;2023-02-01T09:11:00;14.80;;;4.38;;
23080;SDS011;11708;50.570;8.532;2023-02-01T09:13:31;16.35;;;5.45;;
23080;SDS011;11708;50.570;8.532;2023-02-01T09:15:58;22.20;;;4.97;;
23080;SDS011;11708;50.570;8.532;2023-02-01T09:18:24;16.05;;;4.72;;
23080;SDS011;11708;50.570;8.532;2023-02-01T09:20:51;16.13;;;5.55;;
23080;SDS011;11708;50.570;8.532;2023-02-01T09:23:16;22.02;;;4.82;;
23080;SDS011;11708;50.570;8.532;2023-02-01T09:25:45;11.63;;;4.45;;
23080;SDS011;11708;50.570;8.532;2023-02-01T09:28:11;10.55;;;4.32;;
23080;SDS011;11708;50.570;8.532;2023-02-01T09:30:37;14.85;;;4.00;;
23080;SDS011;11708;50.570;8.532;2023-02-01T09:33:04;14.50;;;4.32;;
23080;SDS011;11708;50.570;8.532;2023-02-01T09:35:29;13.65;;;4.30;;
23080;SDS011;11708;50.570;8.532;2023-02-01T09:37:55;10.82;;;4.30;;
23080;SDS011;11708;50.570;8.532;2023-02-01T09:40:21;19.88;;;5.05;;
23080;SDS011;11708;50.570;8.532;2023-02-01T09:46:19;13.73;;;4.28;;
23080;SDS011;11708;50.570;8.532;2023-02-01T09:48:52;13.50;;;4.03;;
23080;SDS011;11708;50.570;8.532;2023-02-01T09:51:23;8.77;;;4.53;;
23080;SDS011;11708;50.570;8.532;2023-02-01T09:56:38;20.85;;;5.50;;
23080;SDS011;11708;50.570;8.532;2023-02-01T10:01:44;19.63;;;5.05;;
23080;SDS011;11708;50.570;8.532;2023-02-01T10:04:11;11.15;;;4.45;;
23080;SDS011;11708;50.570;8.532;2023-02-01T10:28:29;14.77;;;3.80;;
23080;SDS011;11708;50.570;8.532;2023-02-01T10:30:59;15.05;;;3.67;;
23080;SDS011;11708;50.570;8.532;2023-02-01T10:33:32;18.45;;;4.90;;
23080;SDS011;11708;50.570;8.532;2023-02-01T10:38:47;16.40;;;3.75;;
23080;SDS011;11708;50.570;8.532;2023-02-01T10:41:18;12.50;;;3.97;;
23080;SDS011;11708;50.570;8.532;2023-02-01T10:43:48;12.52;;;4.55;;
23080;SDS011;11708;50.570;8.532;2023-02-01T10:46:18;18.60;;;4.13;;
23080;SDS011;11708;50.570;8.532;2023-02-01T10:48:44;10.15;;;4.32;;
23080;SDS011;11708;50.570;8.532;2023-02-01T10:51:12;9.25;;;3.58;;
23080;SDS011;11708;50.570;8.532;2023-02-01T10:56:37;13.15;;;3.42;;
23080;SDS011;11708;50.570;8.532;2023-02-01T10:59:11;13.32;;;4.57;;
23080;SDS011;11708;50.570;8.532;2023-02-01T11:01:42;11.10;;;4.22;;
23080;SDS011;11708;50.570;8.532;2023-02-01T11:04:19;8.88;;;3.63;;
23080;SDS011;11708;50.570;8.532;2023-02-01T11:06:51;13.52;;;3.53;;
23080;SDS011;11708;50.570;8.532;2023-02-01T11:09:30;12.75;;;4.05;;
23080;SDS011;11708;50.570;8.532;2023-02-01T11:11:57;12.60;;;3.75;;
23080;SDS011;11708;50.570;8.532;2023-02-01T11:19:44;14.82;;;4.57;;
23080;SDS011;11708;50.570;8.532;2023-02-01T11:22:10;11.70;;;3.70;;
23080;SDS011;11708;50.570;8.532;2023-02-01T11:24:38;9.90;;;3.88;;
23080;SDS011;11708;50.570;8.532;2023-02-01T11:27:14;11.45;;;4.25;;
23080;SDS011;11708;50.570;8.532;2023-02-01T11:29:43;14.35;;;3.80;;
23080;SDS011;11708;50.570;8.532;2023-02-01T11:32:12;11.30;;;4.03;;
23080;SDS011;11708;50.570;8.532;2023-02-01T11:34:43;10.18;;;3.17;;
23080;SDS011;11708;50.570;8.532;2023-02-01T11:39:58;13.93;;;5.07;;
23080;SDS011;11708;50.570;8.532;2023-02-01T11:42:27;11.48;;;3.30;;
23080;SDS011;11708;50.570;8.532;2023-02-01T11:47:51;13.15;;;3.42;;
23080;SDS011;11708;50.570;8.532;2023-02-01T11:50:19;12.15;;;3.00;;
23080;SDS011;11708;50.570;8.532;2023-02-01T11:56:05;10.85;;;3.38;;
23080;SDS011;11708;50.570;8.532;2023-02-01T12:01:33;14.50;;;3.42;;
23080;SDS011;11708;50.570;8.532;2023-02-01T12:36:32;10.55;;;2.85;;
23080;SDS011;11708;50.570;8.532;2023-02-01T12:41:56;7.90;;;2.80;;
23080;SDS011;11708;50.570;8.532;2023-02-01T12:46:57;8.75;;;2.97;;
23080;SDS011;11708;50.570;8.532;2023-02-01T12:49:38;11.07;;;3.17;;
23080;SDS011;11708;50.570;8.532;2023-02-01T12:52:40;13.77;;;3.00;;
23080;SDS011;11708;50.570;8.532;2023-02-01T12:55:20;12.65;;;3.55;;
23080;SDS011;11708;50.570;8.532;2023-02-01T12:58:15;13.77;;;3.65;;
23080;SDS011;11708;50.570;8.532;2023-02-01T13:00:55;6.95;;;3.03;;
23080;SDS011;11708;50.570;8.532;2023-02-01T13:06:17;7.60;;;2.85;;
23080;SDS011;11708;50.570;8.532;2023-02-01T13:08:58;9.25;;;2.97;;
23080;SDS011;11708;50.570;8.532;2023-02-01T13:11:44;11.18;;;2.60;;
23080;SDS011;11708;50.570;8.532;2023-02-01T13:17:32;21.40;;;3.72;;
23080;SDS011;11708;50.570;8.532;2023-02-01T13:23:08;12.45;;;3.10;;
23080;SDS011;11708;50.570;8.532;2023-02-01T13:25:51;12.70;;;3.03;;
23080;SDS011;11708;50.570;8.532;2023-02-01T13:36:41;7.40;;;2.97;;
23080;SDS011;11708;50.570;8.532;2023-02-01T13:42:29;9.68;;;2.60;;
23080;SDS011;11708;50.570;8.532;2023-02-01T13:45:06;8.95;;;3.15;;
23080;SDS011;11708;50.570;8.532;2023-02-01T13:47:51;8.40;;;3.15;;
23080;SDS011;11708;50.570;8.532;2023-02-01T13:50:26;12.38;;;3.20;;
23080;SDS011;11708;50.570;8.532;2023-02-01T13:53:18;10.93;;;2.75;;
23080;SDS011;11708;50.570;8.532;2023-02-01T13:58:31;11.60;;;3.15;;
23080;SDS011;11708;50.570;8.532;2023-02-01T14:04:00;7.55;;;3.20;;
23080;SDS011;11708;50.570;8.532;2023-02-01T14:11:37;12.38;;;3.53;;
23080;SDS011;11708;50.570;8.532;2023-02-01T14:14:50;13.35;;;3.13;;
23080;SDS011;11708;50.570;8.532;2023-02-01T14:21:46;9.88;;;2.90;;
23080;SDS011;11708;50.570;8.532;2023-02-01T14:24:33;6.43;;;2.67;;
23080;SDS011;11708;50.570;8.532;2023-02-01T14:27:02;9.43;;;3.22;;
23080;SDS011;11708;50.570;8.532;2023-02-01T14:29:40;9.18;;;3.45;;
23080;SDS011;11708;50.570;8.532;2023-02-01T14:47:50;9.10;;;2.92;;
23080;SDS011;11708;50.570;8.532;2023-02-01T14:55:53;8.13;;;2.00;;
23080;SDS011;11708;50.570;8.532;2023-02-01T14:58:52;11.18;;;2.42;;
23080;SDS011;11708;50.570;8.532;2023-02-01T15:03:57;7.43;;;2.60;;
23080;SDS011;11708;50.570;8.532;2023-02-01T15:06:41;9.85;;;3.10;;
23080;SDS011;11708;50.570;8.532;2023-02-01T15:09:32;7.10;;;3.33;;
23080;SDS011;11708;50.570;8.532;2023-02-01T15:12:04;8.60;;;2.67;;
23080;SDS011;11708;50.570;8.532;2023-02-01T15:14:41;9.05;;;2.90;;
23080;SDS011;11708;50.570;8.532;2023-02-01T15:17:27;9.82;;;2.88;;
23080;SDS011;11708;50.570;8.532;2023-02-01T15:20:02;10.35;;;2.83;;
23080;SDS011;11708;50.570;8.532;2023-02-01T15:22:37;10.50;;;2.80;;
23080;SDS011;11708;50.570;8.532;2023-02-01T15:25:03;9.25;;;2.60;;
23080;SDS011;11708;50.570;8.532;2023-02-01T15:27:29;8.70;;;3.03;;
23080;SDS011;11708;50.570;8.532;2023-02-01T15:30:18;10.50;;;3.05;;
23080;SDS011;11708;50.570;8.532;2023-02-01T15:32:43;8.32;;;3.63;;
23080;SDS011;11708;50.570;8.532;2023-02-01T15:43:41;12.98;;;3.50;;
23080;SDS011;11708;50.570;8.532;2023-02-01T15:46:11;10.02;;;3.00;;
23080;SDS011;11708;50.570;8.532;2023-02-01T15:48:41;12.00;;;2.80;;
23080;SDS011;11708;50.570;8.532;2023-02-01T15:51:14;12.45;;;3.28;;
23080;SDS011;11708;50.570;8.532;2023-02-01T15:53:43;9.20;;;3.47;;
23080;SDS011;11708;50.570;8.532;2023-02-01T15:56:20;11.02;;;3.58;;
23080;SDS011;11708;50.570;8.532;2023-02-01T15:58:57;10.93;;;3.72;;
23080;SDS011;11708;50.570;8.532;2023-02-01T16:01:24;12.25;;;3.58;;
23080;SDS011;11708;50.570;8.532;2023-02-01T16:04:01;10.10;;;3.45;;
23080;SDS011;11708;50.570;8.532;2023-02-01T16:06:29;8.10;;;3.22;;
23080;SDS011;11708;50.570;8.532;2023-02-01T16:09:01;10.52;;;3.63;;
23080;SDS011;11708;50.570;8.532;2023-02-01T16:11:40;10.90;;;3.78;;
23080;SDS011;11708;50.570;8.532;2023-02-01T16:14:11;10.98;;;3.60;;
23080;SDS011;11708;50.570;8.532;2023-02-01T16:16:37;16.10;;;4.47;;
23080;SDS011;11708;50.570;8.532;2023-02-01T16:19:03;13.77;;;4.00;;
23080;SDS011;11708;50.570;8.532;2023-02-01T16:21:29;15.40;;;4.10;;
23080;SDS011;11708;50.570;8.532;2023-02-01T16:23:55;13.75;;;3.83;;
23080;SDS011;11708;50.570;8.532;2023-02-01T16:26:21;17.88;;;3.95;;
23080;SDS011;11708;50.570;8.532;2023-02-01T16:28:47;13.93;;;4.68;;
23080;SDS011;11708;50.570;8.532;2023-02-01T16:31:13;13.07;;;3.97;;
23080;SDS011;11708;50.570;8.532;2023-02-01T16:33:47;10.68;;;3.97;;
23080;SDS011;11708;50.570;8.532;2023-02-01T16:36:14;10.38;;;4.03;;
23080;SDS011;11708;50.570;8.532;2023-02-01T16:38:41;9.73;;;4.53;;
23080;SDS011;11708;50.570;8.532;2023-02-01T16:41:09;13.98;;;4.25;;
23080;SDS011;11708;50.570;8.532;2023-02-01T16:43:37;10.55;;;4.53;;
23080;SDS011;11708;50.570;8.532;2023-02-01T16:46:03;11.80;;;4.53;;
23080;SDS011;11708;50.570;8.532;2023-02-01T16:50:58;13.07;;;4.65;;
23080;SDS011;11708;50.570;8.532;2023-02-01T16:53:27;11.75;;;4.25;;
23080;SDS011;11708;50.570;8.532;2023-02-01T16:55:54;11.82;;;4.35;;
23080;SDS011;11708;50.570;8.532;2023-02-01T16:58:22;12.68;;;4.80;;
23080;SDS011;11708;50.570;8.532;2023-02-01T17:00:48;12.02;;;4.50;;
23080;SDS011;11708;50.570;8.532;2023-02-01T17:03:15;14.85;;;3.92;;
23080;SDS011;11708;50.570;8.532;2023-02-01T17:05:45;9.68;;;3.33;;
23080;SDS011;11708;50.570;8.532;2023-02-01T17:08:22;13.85;;;3.22;;
23080;SDS011;11708;50.570;8.532;2023-02-01T17:10:53;10.57;;;3.90;;
23080;SDS011;11708;50.570;8.532;2023-02-01T17:13:19;10.50;;;3.00;;
23080;SDS011;11708;50.570;8.532;2023-02-01T17:15:49;13.75;;;3.10;;
23080;SDS011;11708;50.570;8.532;2023-02-01T17:18:24;9.93;;;3.25;;
23080;SDS011;11708;50.570;8.532;2023-02-01T17:20:55;10.98;;;3.35;;
23080;SDS011;11708;50.570;8.532;2023-02-01T17:23:21;9.77;;;3.40;;
23080;SDS011;11708;50.570;8.532;2023-02-01T17:25:47;14.50;;;3.85;;
23080;SDS011;11708;50.570;8.532;2023-02-01T17:28:13;10.50;;;3.10;;
23080;SDS011;11708;50.570;8.532;2023-02-01T17:30:39;8.05;;;2.85;;
23080;SDS011;11708;50.570;8.532;2023-02-01T17:33:12;10.98;;;3.20;;
23080;SDS011;11708;50.570;8.532;2023-02-01T17:35:41;10.20;;;3.20;;
23080;SDS011;11708;50.570;8.532;2023-02-01T17:38:10;14.32;;;3.60;;
23080;SDS011;11708;50.570;8.532;2023-02-01T17:40:36;7.85;;;3.28;;
23080;SDS011;11708;50.570;8.532;2023-02-01T17:43:02;14.00;;;3.80;;
23080;SDS011;11708;50.570;8.532;2023-02-01T17:48:05;11.05;;;3.17;;
23080;SDS011;11708;50.570;8.532;2023-02-01T17:50:35;7.05;;;3.13;;
23080;SDS011;11708;50.570;8.532;2023-02-01T17:53:03;8.30;;;2.83;;
23080;SDS011;11708;50.570;8.532;2023-02-01T17:55:31;7.88;;;3.15;;
23080;SDS011;11708;50.570;8.532;2023-02-01T17:57:58;9.02;;;3.35;;
23080;SDS011;11708;50.570;8.532;2023-02-01T18:00:24;8.57;;;2.88;;
23080;SDS011;11708;50.570;8.532;2023-02-01T18:02:51;5.28;;;2.83;;
23080;SDS011;11708;50.570;8.532;2023-02-01T18:05:21;13.27;;;2.83;;
23080;SDS011;11708;50.570;8.532;2023-02-01T18:07:50;8.82;;;3.13;;
23080;SDS011;11708;50.570;8.532;2023-02-01T18:10:16;13.27;;;3.83;;
23080;SDS011;11708;50.570;8.532;2023-02-01T18:12:42;10.88;;;3.30;;
23080;SDS011;11708;50.570;8.532;2023-02-01T18:15:11;10.38;;;3.20;;